Corpus Christi, TX

7:59 AM CDT on August 29, 2016 (GMT -0500)
Corpus Christi International | | Change Station

Elev 43 ft 27.77 °N, 97.51 °W | Updated 8 minutes ago

Overcast
Overcast
77 °F
Feels Like 77 °F
N
13
Wind Variable Wind from North

Today
High -- | Low -- °F
--% Chance of Precip.
Yesterday
High -- | Low -- °F
Precip. -- in
Pressure 29.93 in
Visibility 10.0 miles
Clouds Mostly Cloudy 700 ft
Overcast 1300 ft
Dew Point 74 °F
Humidity 90%
Rainfall 0.00 in
Snow Depth Not available.
7:07 AM 7:53 PM
Waning Crescent, 9% visible
METAR KCRP 291251Z 01011KT 10SM BKN007 OVC013 25/23 A2993 RMK AO2 SLP133 T02500233
Pressure 29.93 in
Visibility 10.0 miles
Clouds Mostly Cloudy 700 ft
Overcast 1300 ft
Dew Point 74 °F
Humidity 90%
Rainfall 0.00 in
Snow Depth Not available.
7:07 AM 7:53 PM
Waning Crescent, 9% visible
METAR KCRP 291251Z 01011KT 10SM BKN007 OVC013 25/23 A2993 RMK AO2 SLP133 T02500233

10-Day Weather Forecast

Almanac

Astronomy

Aug. 29, 2016 Rise Set
Actual Time
Civil Twilight
Nautical Twilight
Astronomical Twilight
Moon
Length of Visible Light
Length of Day
Tomorrow will be .
, % of the Moon is Illuminated

Today's Extremes

State Highs State Lows

Community

WunderPhotos

Upload Photos

1,935,810 photos uploaded!

WunderBlog® & News

Nearby

Air Quality

  Air Quality AQ Index Pollutant
Not available.

Snow Depth

Station Depth Elevation

Earthquake Activity

City Distance Mag. Time & Date
Minimum magnitude displayed is 2.5.

Coastal Water Temperatures

Place Temperature

Stations

Nearby Weather Stations

Station Location Temp. Windchill Dew Point Humidity Wind Precip. Elev Updated Type
                   

Watches & Warnings

There are currently no watches in effect.